sensor_id;sensor_type;location;lat;lon;timestamp;temperature;humidity
9215;DHT22;4642;51.364;6.788;2023-02-28T00:00:16;-1.40;99.90
9215;DHT22;4642;51.364;6.788;2023-02-28T00:02:42;-1.50;99.90
9215;DHT22;4642;51.364;6.788;2023-02-28T00:05:10;-1.40;99.90
9215;DHT22;4642;51.364;6.788;2023-02-28T00:07:36;-1.40;99.90
9215;DHT22;4642;51.364;6.788;2023-02-28T00:10:03;-1.50;99.90
9215;DHT22;4642;51.364;6.788;2023-02-28T00:12:29;-1.50;99.90
9215;DHT22;4642;51.364;6.788;2023-02-28T00:14:54;-1.50;99.90
9215;DHT22;4642;51.364;6.788;2023-02-28T00:17:20;-1.60;99.90
9215;DHT22;4642;51.364;6.788;2023-02-28T00:19:49;-1.60;99.90
9215;DHT22;4642;51.364;6.788;2023-02-28T00:22:16;-1.60;99.90
9215;DHT22;4642;51.364;6.788;2023-02-28T00:24:42;-1.60;99.90
9215;DHT22;4642;51.364;6.788;2023-02-28T00:27:08;-1.60;99.90
9215;DHT22;4642;51.364;6.788;2023-02-28T00:29:33;-1.60;99.90
9215;DHT22;4642;51.364;6.788;2023-02-28T00:31:59;-1.60;99.90
9215;DHT22;4642;51.364;6.788;2023-02-28T00:34:25;-1.60;99.90
9215;DHT22;4642;51.364;6.788;2023-02-28T00:36:50;-1.70;99.90
9215;DHT22;4642;51.364;6.788;2023-02-28T00:39:16;-1.70;99.90
9215;DHT22;4642;51.364;6.788;2023-02-28T00:41:42;-1.70;99.90
9215;DHT22;4642;51.364;6.788;2023-02-28T00:44:07;-1.70;99.90
9215;DHT22;4642;51.364;6.788;2023-02-28T00:46:33;-1.70;99.90
9215;DHT22;4642;51.364;6.788;2023-02-28T00:48:58;-1.80;99.90
9215;DHT22;4642;51.364;6.788;2023-02-28T00:51:24;-1.80;99.90
9215;DHT22;4642;51.364;6.788;2023-02-28T00:53:50;-1.80;99.90
9215;DHT22;4642;51.364;6.788;2023-02-28T00:56:15;-1.80;99.90
9215;DHT22;4642;51.364;6.788;2023-02-28T00:58:41;-1.80;99.90
9215;DHT22;4642;51.364;6.788;2023-02-28T01:01:07;-1.80;99.90
9215;DHT22;4642;51.364;6.788;2023-02-28T01:03:32;-1.90;99.90
9215;DHT22;4642;51.364;6.788;2023-02-28T01:05:58;-1.80;99.90
9215;DHT22;4642;51.364;6.788;2023-02-28T01:08:24;-1.90;99.90
9215;DHT22;4642;51.364;6.788;2023-02-28T01:10:51;-1.80;99.90
9215;DHT22;4642;51.364;6.788;2023-02-28T01:13:17;-1.80;99.90
9215;DHT22;4642;51.364;6.788;2023-02-28T01:15:54;-1.80;99.90
9215;DHT22;4642;51.364;6.788;2023-02-28T01:18:21;-1.90;99.90
9215;DHT22;4642;51.364;6.788;2023-02-28T01:20:47;-1.90;99.90
9215;DHT22;4642;51.364;6.788;2023-02-28T01:23:13;-1.90;99.90
9215;DHT22;4642;51.364;6.788;2023-02-28T01:25:39;-1.90;99.90
9215;DHT22;4642;51.364;6.788;2023-02-28T01:28:05;-1.90;99.90
9215;DHT22;4642;51.364;6.788;2023-02-28T01:30:32;-1.90;99.90
9215;DHT22;4642;51.364;6.788;2023-02-28T01:32:58;-1.90;99.90
9215;DHT22;4642;51.364;6.788;2023-02-28T01:35:23;-1.90;99.90
9215;DHT22;4642;51.364;6.788;2023-02-28T01:37:49;-2.00;99.90
9215;DHT22;4642;51.364;6.788;2023-02-28T01:40:15;-1.90;99.90
9215;DHT22;4642;51.364;6.788;2023-02-28T01:42:40;-2.00;99.90
9215;DHT22;4642;51.364;6.788;2023-02-28T01:45:29;-2.00;99.90
9215;DHT22;4642;51.364;6.788;2023-02-28T01:48:06;-2.00;99.90
9215;DHT22;4642;51.364;6.788;2023-02-28T01:50:38;-2.00;99.90
9215;DHT22;4642;51.364;6.788;2023-02-28T01:53:06;-2.00;99.90
9215;DHT22;4642;51.364;6.788;2023-02-28T01:55:33;-2.00;99.90
9215;DHT22;4642;51.364;6.788;2023-02-28T01:58:02;-2.00;99.90
9215;DHT22;4642;51.364;6.788;2023-02-28T02:00:30;-2.00;99.90
9215;DHT22;4642;51.364;6.788;2023-02-28T02:03:01;-2.00;99.90
9215;DHT22;4642;51.364;6.788;2023-02-28T02:05:30;-2.10;99.90
9215;DHT22;4642;51.364;6.788;2023-02-28T02:08:01;-2.00;99.90
9215;DHT22;4642;51.364;6.788;2023-02-28T02:10:35;-2.00;99.90
9215;DHT22;4642;51.364;6.788;2023-02-28T02:33:16;-2.20;99.90
9215;DHT22;4642;51.364;6.788;2023-02-28T02:35:52;-2.20;99.90
9215;DHT22;4642;51.364;6.788;2023-02-28T02:38:31;-2.20;99.90
9215;DHT22;4642;51.364;6.788;2023-02-28T02:41:08;-2.30;99.90
9215;DHT22;4642;51.364;6.788;2023-02-28T02:46:32;-2.40;99.90
9215;DHT22;4642;51.364;6.788;2023-02-28T02:49:01;-2.40;99.90
9215;DHT22;4642;51.364;6.788;2023-02-28T02:51:30;-2.40;99.90
9215;DHT22;4642;51.364;6.788;2023-02-28T02:54:08;-2.40;99.90
9215;DHT22;4642;51.364;6.788;2023-02-28T02:56:36;-2.40;99.90
9215;DHT22;4642;51.364;6.788;2023-02-28T02:59:07;-2.40;99.90
9215;DHT22;4642;51.364;6.788;2023-02-28T03:01:34;-2.40;99.90
9215;DHT22;4642;51.364;6.788;2023-02-28T03:04:04;-2.40;99.90
9215;DHT22;4642;51.364;6.788;2023-02-28T03:06:31;-2.40;99.90
9215;DHT22;4642;51.364;6.788;2023-02-28T03:08:56;-2.40;99.90
9215;DHT22;4642;51.364;6.788;2023-02-28T03:11:22;-2.40;99.90
9215;DHT22;4642;51.364;6.788;2023-02-28T03:13:58;-2.40;99.90
9215;DHT22;4642;51.364;6.788;2023-02-28T03:19:44;-2.40;99.90
9215;DHT22;4642;51.364;6.788;2023-02-28T03:22:14;-2.50;99.90
9215;DHT22;4642;51.364;6.788;2023-02-28T03:27:40;-2.50;99.90
9215;DHT22;4642;51.364;6.788;2023-02-28T03:35:31;-2.60;99.90
9215;DHT22;4642;51.364;6.788;2023-02-28T03:40:44;-2.70;99.90
9215;DHT22;4642;51.364;6.788;2023-02-28T03:43:18;-2.70;99.90
9215;DHT22;4642;51.364;6.788;2023-02-28T03:45:45;-2.80;99.90
9215;DHT22;4642;51.364;6.788;2023-02-28T03:50:47;-2.90;99.90
9215;DHT22;4642;51.364;6.788;2023-02-28T03:53:21;-2.80;99.90
9215;DHT22;4642;51.364;6.788;2023-02-28T03:56:06;-2.80;99.90
9215;DHT22;4642;51.364;6.788;2023-02-28T03:58:35;-2.90;99.90
9215;DHT22;4642;51.364;6.788;2023-02-28T04:01:50;-2.90;99.90
9215;DHT22;4642;51.364;6.788;2023-02-28T04:03:56;-2.90;99.90
9215;DHT22;4642;51.364;6.788;2023-02-28T04:06:22;-2.90;99.90
9215;DHT22;4642;51.364;6.788;2023-02-28T04:08:50;-2.90;99.90
9215;DHT22;4642;51.364;6.788;2023-02-28T04:11:36;-3.00;99.90
9215;DHT22;4642;51.364;6.788;2023-02-28T04:14:03;-3.00;99.90
9215;DHT22;4642;51.364;6.788;2023-02-28T04:16:31;-2.90;99.90
9215;DHT22;4642;51.364;6.788;2023-02-28T04:18:56;-2.90;99.90
9215;DHT22;4642;51.364;6.788;2023-02-28T04:21:28;-2.90;99.90
9215;DHT22;4642;51.364;6.788;2023-02-28T04:23:54;-2.90;99.90
9215;DHT22;4642;51.364;6.788;2023-02-28T04:26:20;-2.90;99.90
9215;DHT22;4642;51.364;6.788;2023-02-28T04:28:45;-3.00;99.90
9215;DHT22;4642;51.364;6.788;2023-02-28T04:31:11;-3.00;99.90
9215;DHT22;4642;51.364;6.788;2023-02-28T04:33:37;-3.10;99.90
9215;DHT22;4642;51.364;6.788;2023-02-28T04:36:05;-3.10;99.90
9215;DHT22;4642;51.364;6.788;2023-02-28T04:38:35;-3.10;99.90
9215;DHT22;4642;51.364;6.788;2023-02-28T04:41:02;-3.10;99.90
9215;DHT22;4642;51.364;6.788;2023-02-28T04:43:28;-3.10;99.90
9215;DHT22;4642;51.364;6.788;2023-02-28T04:45:55;-3.10;99.90
9215;DHT22;4642;51.364;6.788;2023-02-28T04:48:25;-3.10;99.90
9215;DHT22;4642;51.364;6.788;2023-02-28T04:50:52;-3.10;99.90
9215;DHT22;4642;51.364;6.788;2023-02-28T04:53:18;-3.10;99.90
9215;DHT22;4642;51.364;6.788;2023-02-28T04:55:44;-3.00;99.90
9215;DHT22;4642;51.364;6.788;2023-02-28T04:58:09;-3.10;99.90
9215;DHT22;4642;51.364;6.788;2023-02-28T05:00:35;-3.10;99.90
9215;DHT22;4642;51.364;6.788;2023-02-28T05:03:00;-3.10;99.90
9215;DHT22;4642;51.364;6.788;2023-02-28T05:05:26;-3.10;99.90
9215;DHT22;4642;51.364;6.788;2023-02-28T05:07:52;-3.10;99.90
9215;DHT22;4642;51.364;6.788;2023-02-28T05:10:19;-3.20;99.90
9215;DHT22;4642;51.364;6.788;2023-02-28T05:12:44;-3.20;99.90
9215;DHT22;4642;51.364;6.788;2023-02-28T05:15:13;-3.20;99.90
9215;DHT22;4642;51.364;6.788;2023-02-28T05:17:39;-3.20;99.90
9215;DHT22;4642;51.364;6.788;2023-02-28T05:20:06;-3.30;99.90
9215;DHT22;4642;51.364;6.788;2023-02-28T05:22:32;-3.30;99.90
9215;DHT22;4642;51.364;6.788;2023-02-28T05:24:57;-3.30;99.90
9215;DHT22;4642;51.364;6.788;2023-02-28T05:27:23;-3.40;99.90
9215;DHT22;4642;51.364;6.788;2023-02-28T05:29:49;-3.40;99.90
9215;DHT22;4642;51.364;6.788;2023-02-28T05:32:14;-3.40;99.90
9215;DHT22;4642;51.364;6.788;2023-02-28T05:34:41;-3.40;99.90
9215;DHT22;4642;51.364;6.788;2023-02-28T05:37:12;-3.50;99.90
9215;DHT22;4642;51.364;6.788;2023-02-28T05:39:38;-3.50;99.90
9215;DHT22;4642;51.364;6.788;2023-02-28T05:42:04;-3.50;99.90
9215;DHT22;4642;51.364;6.788;2023-02-28T05:44:30;-3.40;99.90
9215;DHT22;4642;51.364;6.788;2023-02-28T05:46:55;-3.50;99.90
9215;DHT22;4642;51.364;6.788;2023-02-28T05:49:21;-3.40;99.90
9215;DHT22;4642;51.364;6.788;2023-02-28T05:51:46;-3.40;99.90
9215;DHT22;4642;51.364;6.788;2023-02-28T05:54:12;-3.30;99.90
9215;DHT22;4642;51.364;6.788;2023-02-28T05:56:37;-3.40;99.90
9215;DHT22;4642;51.364;6.788;2023-02-28T05:59:05;-3.40;99.90
9215;DHT22;4642;51.364;6.788;2023-02-28T06:01:37;-3.40;99.90
9215;DHT22;4642;51.364;6.788;2023-02-28T06:04:06;-3.40;99.90
9215;DHT22;4642;51.364;6.788;2023-02-28T06:06:31;-3.50;99.90
9215;DHT22;4642;51.364;6.788;2023-02-28T06:08:59;-3.50;99.90
9215;DHT22;4642;51.364;6.788;2023-02-28T06:11:26;-3.50;99.90
9215;DHT22;4642;51.364;6.788;2023-02-28T06:13:59;-3.50;99.90
9215;DHT22;4642;51.364;6.788;2023-02-28T06:16:27;-3.50;99.90
9215;DHT22;4642;51.364;6.788;2023-02-28T06:18:53;-3.50;99.90
9215;DHT22;4642;51.364;6.788;2023-02-28T06:21:20;-3.50;99.90
9215;DHT22;4642;51.364;6.788;2023-02-28T06:23:46;-3.50;99.90
9215;DHT22;4642;51.364;6.788;2023-02-28T06:26:12;-3.40;99.90
9215;DHT22;4642;51.364;6.788;2023-02-28T06:28:37;-3.50;99.90
9215;DHT22;4642;51.364;6.788;2023-02-28T06:31:10;-3.50;99.90
9215;DHT22;4642;51.364;6.788;2023-02-28T06:33:37;-3.50;99.90
9215;DHT22;4642;51.364;6.788;2023-02-28T06:36:04;-3.50;99.90
9215;DHT22;4642;51.364;6.788;2023-02-28T06:38:30;-3.50;99.90
9215;DHT22;4642;51.364;6.788;2023-02-28T06:40:56;-3.50;99.90
9215;DHT22;4642;51.364;6.788;2023-02-28T06:43:23;-3.50;99.90
9215;DHT22;4642;51.364;6.788;2023-02-28T06:45:50;-3.50;99.90
9215;DHT22;4642;51.364;6.788;2023-02-28T06:48:16;-3.50;99.90
9215;DHT22;4642;51.364;6.788;2023-02-28T06:50:42;-3.50;99.90
9215;DHT22;4642;51.364;6.788;2023-02-28T06:53:07;-3.50;99.90
9215;DHT22;4642;51.364;6.788;2023-02-28T06:55:33;-3.50;99.90
9215;DHT22;4642;51.364;6.788;2023-02-28T06:57:59;-3.50;99.90
9215;DHT22;4642;51.364;6.788;2023-02-28T07:00:24;-3.50;99.90
9215;DHT22;4642;51.364;6.788;2023-02-28T07:02:50;-3.50;99.90
9215;DHT22;4642;51.364;6.788;2023-02-28T07:05:16;-3.40;99.90
9215;DHT22;4642;51.364;6.788;2023-02-28T07:07:41;-3.40;99.90
9215;DHT22;4642;51.364;6.788;2023-02-28T07:10:12;-3.40;99.90
9215;DHT22;4642;51.364;6.788;2023-02-28T07:12:39;-3.40;99.90
9215;DHT22;4642;51.364;6.788;2023-02-28T07:15:05;-3.40;99.90
9215;DHT22;4642;51.364;6.788;2023-02-28T07:17:31;-3.40;99.90
9215;DHT22;4642;51.364;6.788;2023-02-28T07:19:57;-3.30;99.90
9215;DHT22;4642;51.364;6.788;2023-02-28T07:22:22;-3.30;99.90
9215;DHT22;4642;51.364;6.788;2023-02-28T07:24:48;-3.30;99.90
9215;DHT22;4642;51.364;6.788;2023-02-28T07:27:13;-3.30;99.90
9215;DHT22;4642;51.364;6.788;2023-02-28T07:29:49;-3.20;99.90
9215;DHT22;4642;51.364;6.788;2023-02-28T07:32:14;-3.20;99.90
9215;DHT22;4642;51.364;6.788;2023-02-28T07:34:40;-3.20;99.90
9215;DHT22;4642;51.364;6.788;2023-02-28T07:37:06;-3.10;99.90
9215;DHT22;4642;51.364;6.788;2023-02-28T07:39:31;-3.10;99.90
9215;DHT22;4642;51.364;6.788;2023-02-28T07:41:56;-3.00;99.90
9215;DHT22;4642;51.364;6.788;2023-02-28T07:44:22;-3.00;99.90
9215;DHT22;4642;51.364;6.788;2023-02-28T07:46:48;-2.90;99.90
9215;DHT22;4642;51.364;6.788;2023-02-28T07:49:13;-2.80;99.90
9215;DHT22;4642;51.364;6.788;2023-02-28T07:51:39;-2.80;99.90
9215;DHT22;4642;51.364;6.788;2023-02-28T07:54:04;-2.70;99.90
9215;DHT22;4642;51.364;6.788;2023-02-28T07:56:30;-2.70;99.90
9215;DHT22;4642;51.364;6.788;2023-02-28T07:58:55;-2.60;99.90
9215;DHT22;4642;51.364;6.788;2023-02-28T08:01:21;-2.50;99.90
9215;DHT22;4642;51.364;6.788;2023-02-28T08:03:47;-2.50;99.90
9215;DHT22;4642;51.364;6.788;2023-02-28T08:06:24;-2.40;99.90
9215;DHT22;4642;51.364;6.788;2023-02-28T08:08:49;-2.30;99.90
9215;DHT22;4642;51.364;6.788;2023-02-28T08:11:16;-2.20;99.90
9215;DHT22;4642;51.364;6.788;2023-02-28T08:13:43;-2.10;99.90
9215;DHT22;4642;51.364;6.788;2023-02-28T08:16:09;-2.00;99.90
9215;DHT22;4642;51.364;6.788;2023-02-28T08:18:35;-1.90;99.90
9215;DHT22;4642;51.364;6.788;2023-02-28T08:21:10;-1.80;99.90
9215;DHT22;4642;51.364;6.788;2023-02-28T08:23:36;-1.70;99.90
9215;DHT22;4642;51.364;6.788;2023-02-28T08:26:02;-1.70;99.90
9215;DHT22;4642;51.364;6.788;2023-02-28T08:28:28;-1.60;99.90
9215;DHT22;4642;51.364;6.788;2023-02-28T08:30:54;-1.50;99.90
9215;DHT22;4642;51.364;6.788;2023-02-28T08:33:20;-1.40;99.90
9215;DHT22;4642;51.364;6.788;2023-02-28T08:35:46;-1.40;99.90
9215;DHT22;4642;51.364;6.788;2023-02-28T08:38:11;-1.20;99.90
9215;DHT22;4642;51.364;6.788;2023-02-28T08:40:37;-1.10;99.90
9215;DHT22;4642;51.364;6.788;2023-02-28T08:43:02;-0.90;99.90
9215;DHT22;4642;51.364;6.788;2023-02-28T08:45:28;-0.80;99.90
9215;DHT22;4642;51.364;6.788;2023-02-28T08:47:54;-0.80;99.90
9215;DHT22;4642;51.364;6.788;2023-02-28T08:50:21;-0.60;99.90
9215;DHT22;4642;51.364;6.788;2023-02-28T08:52:47;-0.60;99.90
9215;DHT22;4642;51.364;6.788;2023-02-28T08:55:13;-0.50;99.90
9215;DHT22;4642;51.364;6.788;2023-02-28T08:57:38;-0.40;99.90
9215;DHT22;4642;51.364;6.788;2023-02-28T09:00:04;-0.30;99.90
9215;DHT22;4642;51.364;6.788;2023-02-28T09:02:31;-0.20;99.90
9215;DHT22;4642;51.364;6.788;2023-02-28T09:04:57;-0.10;99.90
9215;DHT22;4642;51.364;6.788;2023-02-28T09:07:23;0.00;99.90
9215;DHT22;4642;51.364;6.788;2023-02-28T09:09:49;0.10;99.90
9215;DHT22;4642;51.364;6.788;2023-02-28T09:12:25;0.30;31.40
9215;DHT22;4642;51.364;6.788;2023-02-28T09:14:51;0.40;3.30
9215;DHT22;4642;51.364;6.788;2023-02-28T09:17:18;0.50;3.40
9215;DHT22;4642;51.364;6.788;2023-02-28T09:19:44;0.60;1.00
9215;DHT22;4642;51.364;6.788;2023-02-28T09:22:10;0.60;1.00
9215;DHT22;4642;51.364;6.788;2023-02-28T09:24:37;0.70;1.00
9215;DHT22;4642;51.364;6.788;2023-02-28T09:27:03;0.80;1.00
9215;DHT22;4642;51.364;6.788;2023-02-28T09:29:29;0.90;1.00
9215;DHT22;4642;51.364;6.788;2023-02-28T09:31:55;1.00;1.00
9215;DHT22;4642;51.364;6.788;2023-02-28T09:34:24;1.10;1.00
9215;DHT22;4642;51.364;6.788;2023-02-28T09:36:50;1.20;1.00
9215;DHT22;4642;51.364;6.788;2023-02-28T09:39:20;1.30;99.90
9215;DHT22;4642;51.364;6.788;2023-02-28T09:41:52;1.30;99.90
9215;DHT22;4642;51.364;6.788;2023-02-28T09:44:24;1.40;99.90
9215;DHT22;4642;51.364;6.788;2023-02-28T09:46:55;1.50;70.40
9215;DHT22;4642;51.364;6.788;2023-02-28T09:49:33;1.60;1.00
9215;DHT22;4642;51.364;6.788;2023-02-28T09:52:06;1.70;1.00
9215;DHT22;4642;51.364;6.788;2023-02-28T09:54:35;1.70;1.00
9215;DHT22;4642;51.364;6.788;2023-02-28T09:57:32;1.70;1.00
9215;DHT22;4642;51.364;6.788;2023-02-28T10:05:18;1.90;1.00
9215;DHT22;4642;51.364;6.788;2023-02-28T10:10:53;2.10;1.00
9215;DHT22;4642;51.364;6.788;2023-02-28T10:13:25;2.20;1.00
9215;DHT22;4642;51.364;6.788;2023-02-28T10:15:57;2.30;1.00
9215;DHT22;4642;51.364;6.788;2023-02-28T10:18:33;2.40;99.90
9215;DHT22;4642;51.364;6.788;2023-02-28T10:21:00;2.40;99.90
9215;DHT22;4642;51.364;6.788;2023-02-28T10:23:31;2.50;99.90
9215;DHT22;4642;51.364;6.788;2023-02-28T10:26:00;2.50;99.90
9215;DHT22;4642;51.364;6.788;2023-02-28T10:28:28;2.60;99.90
9215;DHT22;4642;51.364;6.788;2023-02-28T10:30:56;2.80;99.90
9215;DHT22;4642;51.364;6.788;2023-02-28T10:33:29;2.90;99.90
9215;DHT22;4642;51.364;6.788;2023-02-28T10:35:55;3.00;99.90
9215;DHT22;4642;51.364;6.788;2023-02-28T10:38:24;3.10;99.90
9215;DHT22;4642;51.364;6.788;2023-02-28T10:40:51;3.20;99.90
9215;DHT22;4642;51.364;6.788;2023-02-28T10:48:46;3.60;73.60
9215;DHT22;4642;51.364;6.788;2023-02-28T10:51:17;3.60;1.00
9215;DHT22;4642;51.364;6.788;2023-02-28T10:58:55;3.90;1.00
9215;DHT22;4642;51.364;6.788;2023-02-28T11:01:40;4.00;1.00
9215;DHT22;4642;51.364;6.788;2023-02-28T11:06:47;4.10;1.00
9215;DHT22;4642;51.364;6.788;2023-02-28T11:11:52;4.40;1.00
9215;DHT22;4642;51.364;6.788;2023-02-28T11:14:24;4.40;1.00
9215;DHT22;4642;51.364;6.788;2023-02-28T11:16:51;4.40;1.00
9215;DHT22;4642;51.364;6.788;2023-02-28T11:19:22;4.40;99.90
9215;DHT22;4642;51.364;6.788;2023-02-28T11:21:56;4.40;99.90
9215;DHT22;4642;51.364;6.788;2023-02-28T11:24:37;4.40;99.90
9215;DHT22;4642;51.364;6.788;2023-02-28T11:29:56;4.40;99.90
9215;DHT22;4642;51.364;6.788;2023-02-28T11:32:24;4.40;99.90
9215;DHT22;4642;51.364;6.788;2023-02-28T11:35:29;4.40;99.90
9215;DHT22;4642;51.364;6.788;2023-02-28T11:37:57;4.40;99.90
9215;DHT22;4642;51.364;6.788;2023-02-28T11:40:30;4.40;99.90
9215;DHT22;4642;51.364;6.788;2023-02-28T11:43:28;4.40;99.90
9215;DHT22;4642;51.364;6.788;2023-02-28T11:55:02;4.70;99.90
9215;DHT22;4642;51.364;6.788;2023-02-28T12:00:12;4.80;1.00
9215;DHT22;4642;51.364;6.788;2023-02-28T12:05:36;4.90;5.50
9215;DHT22;4642;51.364;6.788;2023-02-28T12:13:23;5.00;1.00
9215;DHT22;4642;51.364;6.788;2023-02-28T12:21:31;4.90;1.00
9215;DHT22;4642;51.364;6.788;2023-02-28T12:24:22;4.90;1.00
9215;DHT22;4642;51.364;6.788;2023-02-28T12:26:46;4.90;1.00
9215;DHT22;4642;51.364;6.788;2023-02-28T12:29:29;4.90;1.00
9215;DHT22;4642;51.364;6.788;2023-02-28T12:32:18;4.90;1.00
9215;DHT22;4642;51.364;6.788;2023-02-28T12:34:54;5.00;1.00
9215;DHT22;4642;51.364;6.788;2023-02-28T12:37:27;4.90;1.00
9215;DHT22;4642;51.364;6.788;2023-02-28T12:39:59;4.90;1.00
9215;DHT22;4642;51.364;6.788;2023-02-28T12:42:31;4.90;1.00
9215;DHT22;4642;51.364;6.788;2023-02-28T12:44:59;4.90;1.00
9215;DHT22;4642;51.364;6.788;2023-02-28T12:47:26;4.80;1.00
9215;DHT22;4642;51.364;6.788;2023-02-28T12:50:07;4.80;1.00
9215;DHT22;4642;51.364;6.788;2023-02-28T12:53:06;4.80;1.00
9215;DHT22;4642;51.364;6.788;2023-02-28T12:55:49;4.90;1.00
9215;DHT22;4642;51.364;6.788;2023-02-28T12:58:33;5.00;1.00
9215;DHT22;4642;51.364;6.788;2023-02-28T13:01:35;5.10;1.00
9215;DHT22;4642;51.364;6.788;2023-02-28T13:09:09;4.90;1.00
9215;DHT22;4642;51.364;6.788;2023-02-28T13:11:49;5.00;1.00
9215;DHT22;4642;51.364;6.788;2023-02-28T13:19:44;5.10;1.00
9215;DHT22;4642;51.364;6.788;2023-02-28T13:22:39;5.40;1.00
9215;DHT22;4642;51.364;6.788;2023-02-28T13:28:09;5.20;99.90
9215;DHT22;4642;51.364;6.788;2023-02-28T13:36:28;5.20;1.00
9215;DHT22;4642;51.364;6.788;2023-02-28T13:45:20;5.30;1.00
9215;DHT22;4642;51.364;6.788;2023-02-28T13:47:54;5.30;1.00
9215;DHT22;4642;51.364;6.788;2023-02-28T13:58:54;5.30;1.00
9215;DHT22;4642;51.364;6.788;2023-02-28T14:01:42;5.30;1.00
9215;DHT22;4642;51.364;6.788;2023-02-28T14:07:00;5.40;1.00
9215;DHT22;4642;51.364;6.788;2023-02-28T14:09:38;5.40;1.00
9215;DHT22;4642;51.364;6.788;2023-02-28T14:15:54;5.40;1.00
9215;DHT22;4642;51.364;6.788;2023-02-28T14:18:25;5.40;1.00
9215;DHT22;4642;51.364;6.788;2023-02-28T14:21:36;5.40;1.00
9215;DHT22;4642;51.364;6.788;2023-02-28T14:29:08;5.50;1.00
9215;DHT22;4642;51.364;6.788;2023-02-28T14:31:42;5.50;1.00
9215;DHT22;4642;51.364;6.788;2023-02-28T14:34:25;5.50;99.90
9215;DHT22;4642;51.364;6.788;2023-02-28T14:36:58;5.50;99.90
9215;DHT22;4642;51.364;6.788;2023-02-28T14:39:27;5.50;99.90
9215;DHT22;4642;51.364;6.788;2023-02-28T14:41:56;5.50;1.00
9215;DHT22;4642;51.364;6.788;2023-02-28T14:44:26;5.50;99.90
9215;DHT22;4642;51.364;6.788;2023-02-28T14:46:57;5.50;99.90
9215;DHT22;4642;51.364;6.788;2023-02-28T14:49:34;5.50;99.90
9215;DHT22;4642;51.364;6.788;2023-02-28T14:54:38;5.60;99.90
9215;DHT22;4642;51.364;6.788;2023-02-28T14:57:04;5.50;99.90
9215;DHT22;4642;51.364;6.788;2023-02-28T15:02:15;5.40;99.90
9215;DHT22;4642;51.364;6.788;2023-02-28T15:04:41;5.40;99.90
9215;DHT22;4642;51.364;6.788;2023-02-28T15:07:14;5.40;1.00
9215;DHT22;4642;51.364;6.788;2023-02-28T15:09:40;5.40;1.00
9215;DHT22;4642;51.364;6.788;2023-02-28T15:12:06;5.40;1.00
9215;DHT22;4642;51.364;6.788;2023-02-28T15:14:34;5.40;1.00
9215;DHT22;4642;51.364;6.788;2023-02-28T15:17:07;5.40;1.00
9215;DHT22;4642;51.364;6.788;2023-02-28T15:19:37;5.40;1.00
9215;DHT22;4642;51.364;6.788;2023-02-28T15:22:08;5.40;1.00
9215;DHT22;4642;51.364;6.788;2023-02-28T15:24:42;5.40;1.00
9215;DHT22;4642;51.364;6.788;2023-02-28T15:27:21;5.30;1.00
9215;DHT22;4642;51.364;6.788;2023-02-28T15:29:50;5.30;1.00
9215;DHT22;4642;51.364;6.788;2023-02-28T15:32:30;5.30;1.00
9215;DHT22;4642;51.364;6.788;2023-02-28T15:34:57;5.30;1.00
9215;DHT22;4642;51.364;6.788;2023-02-28T15:40:23;5.20;1.00
9215;DHT22;4642;51.364;6.788;2023-02-28T15:43:13;5.20;1.00
9215;DHT22;4642;51.364;6.788;2023-02-28T15:45:46;5.20;1.00
9215;DHT22;4642;51.364;6.788;2023-02-28T15:48:19;5.10;1.00
9215;DHT22;4642;51.364;6.788;2023-02-28T15:50:49;5.10;1.00
9215;DHT22;4642;51.364;6.788;2023-02-28T15:53:21;5.10;1.00
9215;DHT22;4642;51.364;6.788;2023-02-28T15:55:53;5.10;1.00
9215;DHT22;4642;51.364;6.788;2023-02-28T15:58:20;5.10;1.00
9215;DHT22;4642;51.364;6.788;2023-02-28T16:03:44;5.00;1.00
9215;DHT22;4642;51.364;6.788;2023-02-28T16:08:42;4.90;1.00
9215;DHT22;4642;51.364;6.788;2023-02-28T16:11:11;4.90;1.00
9215;DHT22;4642;51.364;6.788;2023-02-28T16:13:37;4.80;92.10
9215;DHT22;4642;51.364;6.788;2023-02-28T16:16:02;4.80;65.80
9215;DHT22;4642;51.364;6.788;2023-02-28T16:18:28;4.70;1.00
9215;DHT22;4642;51.364;6.788;2023-02-28T16:20:54;4.70;1.00
9215;DHT22;4642;51.364;6.788;2023-02-28T16:23:19;4.70;1.00
9215;DHT22;4642;51.364;6.788;2023-02-28T16:25:45;4.70;48.60
9215;DHT22;4642;51.364;6.788;2023-02-28T16:30:45;4.60;99.90
9215;DHT22;4642;51.364;6.788;2023-02-28T16:33:11;4.50;1.00
9215;DHT22;4642;51.364;6.788;2023-02-28T16:35:36;4.40;1.00
9215;DHT22;4642;51.364;6.788;2023-02-28T16:38:02;4.40;99.90
9215;DHT22;4642;51.364;6.788;2023-02-28T16:40:27;4.40;1.00
9215;DHT22;4642;51.364;6.788;2023-02-28T16:42:58;4.40;99.90
9215;DHT22;4642;51.364;6.788;2023-02-28T16:45:26;4.40;1.00
9215;DHT22;4642;51.364;6.788;2023-02-28T16:47:52;4.30;77.70
9215;DHT22;4642;51.364;6.788;2023-02-28T16:50:21;4.30;1.00
9215;DHT22;4642;51.364;6.788;2023-02-28T16:52:48;4.20;1.00
9215;DHT22;4642;51.364;6.788;2023-02-28T16:55:15;4.20;1.00
9215;DHT22;4642;51.364;6.788;2023-02-28T16:57:41;4.10;1.00
9215;DHT22;4642;51.364;6.788;2023-02-28T17:00:12;4.10;1.00
9215;DHT22;4642;51.364;6.788;2023-02-28T17:02:38;4.00;1.00
9215;DHT22;4642;51.364;6.788;2023-02-28T17:05:04;4.00;1.00
9215;DHT22;4642;51.364;6.788;2023-02-28T17:07:29;3.90;1.00
9215;DHT22;4642;51.364;6.788;2023-02-28T17:09:55;3.90;71.90
9215;DHT22;4642;51.364;6.788;2023-02-28T17:12:21;3.80;1.00
9215;DHT22;4642;51.364;6.788;2023-02-28T17:14:46;3.70;1.00
9215;DHT22;4642;51.364;6.788;2023-02-28T17:17:17;3.70;99.90
9215;DHT22;4642;51.364;6.788;2023-02-28T17:19:43;3.60;59.70
9215;DHT22;4642;51.364;6.788;2023-02-28T17:22:09;3.60;99.90
9215;DHT22;4642;51.364;6.788;2023-02-28T17:24:35;3.60;99.90
9215;DHT22;4642;51.364;6.788;2023-02-28T17:27:01;3.50;99.90
9215;DHT22;4642;51.364;6.788;2023-02-28T17:29:26;3.50;99.90
9215;DHT22;4642;51.364;6.788;2023-02-28T17:31:53;3.50;99.90
9215;DHT22;4642;51.364;6.788;2023-02-28T17:34:18;3.40;99.90
9215;DHT22;4642;51.364;6.788;2023-02-28T17:36:46;3.30;99.90
9215;DHT22;4642;51.364;6.788;2023-02-28T17:39:13;3.20;99.90
9215;DHT22;4642;51.364;6.788;2023-02-28T17:41:42;3.20;1.00
9215;DHT22;4642;51.364;6.788;2023-02-28T17:44:08;3.10;99.90
9215;DHT22;4642;51.364;6.788;2023-02-28T17:46:35;3.10;99.90
9215;DHT22;4642;51.364;6.788;2023-02-28T17:49:01;3.10;99.90
9215;DHT22;4642;51.364;6.788;2023-02-28T17:51:27;3.00;99.90
9215;DHT22;4642;51.364;6.788;2023-02-28T17:53:52;3.00;1.00
9215;DHT22;4642;51.364;6.788;2023-02-28T17:56:24;2.90;1.00
9215;DHT22;4642;51.364;6.788;2023-02-28T17:58:51;2.90;1.00
9215;DHT22;4642;51.364;6.788;2023-02-28T18:01:17;2.80;1.00
9215;DHT22;4642;51.364;6.788;2023-02-28T18:03:43;2.70;1.00
9215;DHT22;4642;51.364;6.788;2023-02-28T18:06:21;2.70;1.00
9215;DHT22;4642;51.364;6.788;2023-02-28T18:08:47;2.60;1.00
9215;DHT22;4642;51.364;6.788;2023-02-28T18:11:13;2.50;88.40
9215;DHT22;4642;51.364;6.788;2023-02-28T18:13:50;2.50;99.90
9215;DHT22;4642;51.364;6.788;2023-02-28T18:16:17;2.40;99.90
9215;DHT22;4642;51.364;6.788;2023-02-28T18:18:43;2.30;99.90
9215;DHT22;4642;51.364;6.788;2023-02-28T18:21:11;2.30;99.90
9215;DHT22;4642;51.364;6.788;2023-02-28T18:23:37;2.20;99.90
9215;DHT22;4642;51.364;6.788;2023-02-28T18:26:09;2.20;1.00
9215;DHT22;4642;51.364;6.788;2023-02-28T18:28:35;2.00;99.90
9215;DHT22;4642;51.364;6.788;2023-02-28T18:31:08;2.00;1.00
9215;DHT22;4642;51.364;6.788;2023-02-28T18:33:34;2.00;1.00
9215;DHT22;4642;51.364;6.788;2023-02-28T18:36:00;1.90;99.90
9215;DHT22;4642;51.364;6.788;2023-02-28T18:38:26;1.90;99.90
9215;DHT22;4642;51.364;6.788;2023-02-28T18:40:55;1.80;99.90
9215;DHT22;4642;51.364;6.788;2023-02-28T18:43:21;1.70;99.90
9215;DHT22;4642;51.364;6.788;2023-02-28T18:45:47;1.70;99.90
9215;DHT22;4642;51.364;6.788;2023-02-28T18:48:13;1.60;99.90
9215;DHT22;4642;51.364;6.788;2023-02-28T18:50:39;1.50;99.90
9215;DHT22;4642;51.364;6.788;2023-02-28T18:53:06;1.40;99.90
9215;DHT22;4642;51.364;6.788;2023-02-28T18:55:32;1.40;1.00
9215;DHT22;4642;51.364;6.788;2023-02-28T18:57:58;1.30;1.00
9215;DHT22;4642;51.364;6.788;2023-02-28T19:00:24;1.30;1.00